createdAt,value
2019-06-07T00:01:20.768Z,95094.78
2019-06-07T00:03:49.208Z,95099.16
2019-06-07T00:06:24.388Z,95101.53
2019-06-07T00:08:48.176Z,95104.44
2019-06-07T00:11:20.013Z,95106.08
2019-06-07T00:13:47.030Z,95101.53
2019-06-07T00:16:20.879Z,95099.14
2019-06-07T00:18:45.996Z,95100.63
2019-06-07T00:21:17.021Z,95096.14
2019-06-07T00:23:44.904Z,95093.63
2019-06-07T00:26:17.339Z,95100.45
2019-06-07T00:28:43.912Z,95092.68
2019-06-07T00:31:14.940Z,95098.89
2019-06-07T00:33:42.761Z,95095.20
2019-06-07T00:36:14.571Z,95088.85
2019-06-07T00:38:41.722Z,95090.56
2019-06-07T00:41:10.358Z,95089.86
2019-06-07T00:43:39.027Z,95084.08
2019-06-07T00:46:07.584Z,95088.23
2019-06-07T00:48:36.226Z,95089.98
2019-06-07T00:51:04.898Z,95088.45
2019-06-07T00:53:33.633Z,95088.28
2019-06-07T00:56:02.277Z,95078.83
2019-06-07T00:58:30.921Z,95085.16
2019-06-07T01:00:59.571Z,95088.14
2019-06-07T01:03:28.262Z,95092.37
2019-06-07T01:05:56.896Z,95095.42
2019-06-07T01:08:29.975Z,95089.05
2019-06-07T01:10:55.888Z,95085.74
2019-06-07T01:13:26.773Z,95088.06
2019-06-07T01:15:54.836Z,95089.84
2019-06-07T01:18:37.842Z,95095.05
2019-06-07T01:20:53.871Z,95095.34
2019-06-07T01:24:03.368Z,95089.53
2019-06-07T01:25:52.787Z,95083.06
2019-06-07T01:28:26.336Z,95082.84
2019-06-07T01:30:52.548Z,95081.91
2019-06-07T01:33:23.484Z,95082.61
2019-06-07T01:35:51.653Z,95091.66
2019-06-07T01:38:21.929Z,95086.26
2019-06-07T01:40:50.534Z,95085.47
2019-06-07T01:43:20.180Z,95088.34
2019-06-07T01:45:49.511Z,95090.98
2019-06-07T01:48:21.625Z,95088.48
2019-06-07T01:50:48.474Z,95091.79
2019-06-07T01:53:20.768Z,95091.11
2019-06-07T01:55:47.367Z,95090.70
2019-06-07T01:58:17.031Z,95089.40
2019-06-07T02:00:46.630Z,95093.77
2019-06-07T02:03:15.274Z,95093.36
2019-06-07T02:05:43.843Z,95098.13
2019-06-07T02:08:12.447Z,95098.13
2019-06-07T02:10:41.025Z,95106.05
2019-06-07T02:13:09.655Z,95101.31
2019-06-07T02:15:38.194Z,95102.37
2019-06-07T02:18:06.943Z,95102.98
2019-06-07T02:20:35.526Z,95089.77
2019-06-07T02:23:04.179Z,95104.89
2019-06-07T02:25:43.827Z,95108.70
2019-06-07T02:28:26.788Z,95105.47
2019-06-07T02:30:46.031Z,95114.38
2019-06-07T02:33:03.885Z,95117.75
2019-06-07T02:35:39.027Z,95109.30
2019-06-07T02:38:02.801Z,95112.13
2019-06-07T02:40:36.395Z,95119.58
2019-06-07T02:43:01.758Z,95121.11
2019-06-07T02:45:42.037Z,95122.19
2019-06-07T02:48:00.711Z,95120.20
2019-06-07T02:50:35.361Z,95124.95
2019-06-07T02:52:59.618Z,95133.09
2019-06-07T02:55:33.213Z,95130.30
2019-06-07T02:57:58.605Z,95141.62
2019-06-07T03:01:07.569Z,95142.98
2019-06-07T03:03:16.719Z,95139.78
2019-06-07T03:05:46.378Z,95151.36
2019-06-07T03:08:16.430Z,95155.06
2019-06-07T03:10:49.765Z,95156.73
2019-06-07T03:13:20.396Z,95159.61
2019-06-07T03:15:55.901Z,95163.56
2019-06-07T03:18:42.372Z,95174.65
2019-06-07T03:21:12.676Z,95175.08
2019-06-07T03:23:41.361Z,95183.05
2019-06-07T03:26:10.010Z,95180.62
2019-06-07T03:28:39.626Z,95191.76
2019-06-07T03:31:08.325Z,95192.05
2019-06-07T03:33:42.757Z,95198.22
2019-06-07T03:36:23.511Z,95203.33
2019-06-07T03:38:39.647Z,95203.42
2019-06-07T03:41:07.829Z,95208.88
2019-06-07T03:43:40.402Z,95207.52
2019-06-07T03:46:06.789Z,95201.92
2019-06-07T03:48:36.429Z,95200.48
2019-06-07T03:51:23.607Z,95203.58
2019-06-07T03:53:37.336Z,95198.34
2019-06-07T03:56:06.622Z,95186.83
2019-06-07T03:58:47.973Z,95195.06
2019-06-07T04:01:05.539Z,95189.09
2019-06-07T04:03:43.542Z,95191.03
2019-06-07T04:06:04.495Z,95200.13
2019-06-07T04:08:34.422Z,95200.13
2019-06-07T04:11:03.344Z,95200.48
2019-06-07T04:13:35.347Z,95207.69
2019-06-07T04:16:04.011Z,95206.16
2019-06-07T04:18:33.061Z,95212.37
2019-06-07T04:21:02.321Z,95214.34
2019-06-07T04:23:33.139Z,95212.16
2019-06-07T04:26:01.166Z,95216.87
2019-06-07T04:29:25.059Z,95216.08
2019-06-07T04:31:00.556Z,95217.59
2019-06-07T04:33:31.082Z,95212.97
2019-06-07T04:36:00.050Z,95212.08
2019-06-07T04:38:31.970Z,95219.14
2019-06-07T04:41:01.036Z,95220.06
2019-06-07T04:43:31.594Z,95225.80
2019-06-07T04:46:02.623Z,95235.88
2019-06-07T04:48:35.181Z,95227.48
2019-06-07T04:51:04.859Z,95228.50
2019-06-07T04:53:35.244Z,95230.78
2019-06-07T04:56:03.984Z,95235.82
2019-06-07T04:58:33.366Z,95244.23
2019-06-07T05:01:03.753Z,95240.13
2019-06-07T05:03:36.090Z,95236.70
2019-06-07T05:06:02.875Z,95242.63
2019-06-07T05:08:33.361Z,95245.73
2019-06-07T05:11:01.820Z,95240.31
2019-06-07T05:13:35.024Z,95249.80
2019-06-07T05:16:00.795Z,95247.23
2019-06-07T05:18:29.664Z,95254.14
2019-06-07T05:20:59.229Z,95261.41
2019-06-07T05:24:02.582Z,95264.62
2019-06-07T05:25:58.457Z,95262.95
2019-06-07T05:28:27.130Z,95257.27
2019-06-07T05:31:04.575Z,95262.48
2019-06-07T05:33:26.038Z,95269.59
2019-06-07T05:35:54.698Z,95269.39
2019-06-07T05:38:23.336Z,95264.22
2019-06-07T05:40:51.971Z,95264.82
2019-06-07T05:43:29.392Z,95269.72
2019-06-07T05:45:57.960Z,95265.11
2019-06-07T05:48:26.872Z,95263.12
2019-06-07T05:50:57.319Z,95268.39
2019-06-07T05:53:25.840Z,95262.37
2019-06-07T05:55:54.513Z,95263.70
2019-06-07T05:58:23.079Z,95255.58
2019-06-07T06:00:51.698Z,95261.72
2019-06-07T06:03:20.305Z,95258.11
2019-06-07T06:05:54.838Z,95258.70
2019-06-07T06:08:19.399Z,95262.94
2019-06-07T06:10:48.986Z,95257.30
2019-06-07T06:13:17.775Z,95264.20
2019-06-07T06:16:00.479Z,95256.81
2019-06-07T06:18:16.652Z,95256.70
2019-06-07T06:21:09.660Z,95263.32
2019-06-07T06:23:15.626Z,95260.23
2019-06-07T06:25:52.439Z,95264.53
2019-06-07T06:28:16.193Z,95254.72
2019-06-07T06:30:47.962Z,95246.81
2019-06-07T06:33:32.939Z,95252.80
2019-06-07T06:35:50.487Z,95246.98
2019-06-07T06:38:16.832Z,95246.59
2019-06-07T06:40:48.940Z,95241.84
2019-06-07T06:43:15.982Z,95238.98
2019-06-07T06:45:49.773Z,95243.97
2019-06-07T06:48:14.861Z,95243.73
2019-06-07T06:50:44.447Z,95245.69
2019-06-07T06:53:13.761Z,95248.98
2019-06-07T06:55:43.939Z,95235.11
2019-06-07T06:58:12.669Z,95225.45
2019-06-07T07:01:06.050Z,95230.42
2019-06-07T07:05:54.536Z,95229.69
2019-06-07T07:08:22.895Z,95227.60
2019-06-07T07:10:53.156Z,95228.14
2019-06-07T07:13:21.855Z,95232.45
2019-06-07T07:15:55.740Z,95233.44
2019-06-07T07:18:20.827Z,95231.84
2019-06-07T07:20:51.278Z,95238.13
2019-06-07T07:23:19.703Z,95230.75
2019-06-07T07:25:55.373Z,95232.14
2019-06-07T07:28:18.487Z,95229.13
2019-06-07T07:30:52.717Z,95222.48
2019-06-07T07:33:19.946Z,95221.86
2019-06-07T07:36:13.935Z,95232.90
2019-06-07T07:38:19.046Z,95231.11
2019-06-07T07:41:01.531Z,95232.73
2019-06-07T07:43:17.958Z,95236.83
2019-06-07T07:45:51.024Z,95237.70
2019-06-07T07:48:18.559Z,95235.83
2019-06-07T07:50:49.703Z,95232.36
2019-06-07T07:53:17.442Z,95232.02
2019-06-07T07:55:50.442Z,95238.00
2019-06-07T07:58:16.240Z,95234.21
2019-06-07T08:01:00.679Z,95239.69
2019-06-07T08:03:15.027Z,95242.31
2019-06-07T08:05:45.676Z,95240.39
2019-06-07T08:08:13.834Z,95237.70
2019-06-07T08:10:42.388Z,95242.69
2019-06-07T08:13:27.601Z,95241.36
2019-06-07T08:15:41.369Z,95241.84
2019-06-07T08:18:10.021Z,95242.66
2019-06-07T08:20:38.570Z,95250.05
2019-06-07T08:23:07.170Z,95249.91
2019-06-07T08:25:35.863Z,95249.86
2019-06-07T08:28:04.539Z,95253.52
2019-06-07T08:30:55.030Z,95257.23
2019-06-07T08:33:24.585Z,95253.66
2019-06-07T08:40:34.414Z,95248.48
2019-06-07T08:43:18.191Z,95252.94
2019-06-07T08:45:33.291Z,95256.56
2019-06-07T08:48:09.463Z,95254.97
2019-06-07T08:50:32.239Z,95255.84
2019-06-07T08:53:11.057Z,95254.04
2019-06-07T08:55:30.999Z,95248.62
2019-06-07T08:58:04.568Z,95250.69
2019-06-07T09:00:45.323Z,95254.91
2019-06-07T09:03:06.470Z,95245.45
2019-06-07T09:05:30.531Z,95247.30
2019-06-07T09:08:21.680Z,95249.61
2019-06-07T09:10:29.455Z,95244.98
2019-06-07T09:13:03.160Z,95246.02
2019-06-07T09:15:28.326Z,95237.85
2019-06-07T09:18:34.764Z,95235.10
2019-06-07T09:20:36.946Z,95234.69
2019-06-07T09:23:11.437Z,95235.23
2019-06-07T09:25:52.169Z,95240.11
2019-06-07T09:28:13.469Z,95238.48
2019-06-07T09:30:45.022Z,95231.91
2019-06-07T09:33:14.019Z,95233.05
2019-06-07T09:35:42.724Z,95233.44
2019-06-07T09:38:24.109Z,95229.78
2019-06-07T09:40:41.663Z,95225.52
2019-06-07T09:45:40.565Z,95237.37
2019-06-07T09:48:13.681Z,95236.30
2019-06-07T09:50:39.674Z,95231.18
2019-06-07T09:53:21.197Z,95227.41
2019-06-07T09:55:38.687Z,95225.33
2019-06-07T09:58:48.327Z,95228.02
2019-06-07T10:00:41.484Z,95228.20
2019-06-07T10:03:17.794Z,95219.75
2019-06-07T10:05:38.382Z,95228.23
2019-06-07T10:08:37.029Z,95220.11
2019-06-07T10:10:37.303Z,95221.91
2019-06-07T10:13:06.599Z,95229.23
2019-06-07T10:15:36.305Z,95223.90
2019-06-07T10:18:04.979Z,95217.61
2019-06-07T10:20:33.533Z,95215.56
2019-06-07T10:23:03.561Z,95213.36
2019-06-07T10:25:32.373Z,95209.95
2019-06-07T10:28:01.851Z,95212.36
2019-06-07T10:30:30.477Z,95216.15
2019-06-07T10:33:00.004Z,95213.11
2019-06-07T10:35:29.197Z,95215.50
2019-06-07T10:37:58.338Z,95210.80
2019-06-07T10:40:26.935Z,95212.48
2019-06-07T10:42:55.419Z,95213.06
2019-06-07T10:45:23.922Z,95199.43
2019-06-07T10:47:52.541Z,95205.99
2019-06-07T10:50:21.569Z,95199.65
2019-06-07T10:52:50.131Z,95194.30
2019-06-07T10:55:18.860Z,95188.98
2019-06-07T10:57:47.379Z,95191.26
2019-06-07T11:00:16.500Z,95192.99
2019-06-07T11:02:45.044Z,95191.58
2019-06-07T11:05:14.431Z,95192.92
2019-06-07T11:07:43.059Z,95189.73
2019-06-07T11:10:18.848Z,95188.61
2019-06-07T11:12:42.329Z,95184.27
2019-06-07T11:15:12.829Z,95182.21
2019-06-07T11:17:41.558Z,95180.09
2019-06-07T11:20:12.306Z,95181.25
2019-06-07T11:22:41.017Z,95181.91
2019-06-07T11:25:11.167Z,95180.67
2019-06-07T11:27:40.996Z,95180.20
2019-06-07T11:30:10.536Z,95179.34
2019-06-07T11:32:39.192Z,95167.78
2019-06-07T11:35:11.671Z,95173.66
2019-06-07T11:37:39.677Z,95172.45
2019-06-07T11:40:27.928Z,95172.38
2019-06-07T11:42:39.728Z,95169.80
2019-06-07T11:45:10.503Z,95171.80
2019-06-07T11:47:39.181Z,95172.89
2019-06-07T11:50:09.442Z,95172.67
2019-06-07T11:52:39.292Z,95163.66
2019-06-07T11:55:09.019Z,95161.89
2019-06-07T11:57:37.955Z,95158.89
2019-06-07T12:00:11.437Z,95152.24
2019-06-07T12:02:40.309Z,95152.63
2019-06-07T12:05:12.641Z,95153.39
2019-06-07T12:07:39.877Z,95144.25
2019-06-07T12:10:10.642Z,95139.15
2019-06-07T12:12:39.462Z,95136.16
2019-06-07T12:15:08.918Z,95128.81
2019-06-07T12:17:37.748Z,95129.64
2019-06-07T12:20:08.782Z,95130.56
2019-06-07T12:22:37.565Z,95128.38
2019-06-07T12:25:07.510Z,95121.19
2019-06-07T12:27:36.136Z,95131.00
2019-06-07T12:30:15.441Z,95124.98
2019-06-07T12:32:39.693Z,95119.65
2019-06-07T12:35:08.630Z,95114.88
2019-06-07T12:37:44.282Z,95108.67
2019-06-07T12:40:10.106Z,95113.91
2019-06-07T12:42:38.806Z,95116.91
2019-06-07T12:45:08.142Z,95108.86
2019-06-07T12:47:36.822Z,95111.28
2019-06-07T12:50:08.979Z,95106.55
2019-06-07T12:52:37.605Z,95107.79
2019-06-07T12:55:07.818Z,95108.47
2019-06-07T12:57:36.377Z,95096.81
2019-06-07T13:00:10.089Z,95104.08
2019-06-07T13:02:38.732Z,95099.25
2019-06-07T13:05:08.159Z,95095.30
2019-06-07T13:07:36.871Z,95095.73
2019-06-07T13:10:10.317Z,95097.81
2019-06-07T13:12:39.060Z,95094.20
2019-06-07T13:15:08.412Z,95100.47
2019-06-07T13:17:37.744Z,95101.16
2019-06-07T13:20:08.381Z,95089.71
2019-06-07T13:22:37.049Z,95076.80
2019-06-07T13:25:07.969Z,95085.90
2019-06-07T13:27:36.589Z,95088.30
2019-06-07T13:30:10.719Z,95084.16
2019-06-07T13:32:39.271Z,95077.28
2019-06-07T13:35:08.511Z,95075.80
2019-06-07T13:37:37.177Z,95073.64
2019-06-07T13:40:06.928Z,95072.36
2019-06-07T13:42:35.557Z,95072.77
2019-06-07T13:45:06.065Z,95069.75
2019-06-07T13:47:34.668Z,95078.18
2019-06-07T13:50:04.569Z,95063.27
2019-06-07T13:52:33.160Z,95076.92
2019-06-07T13:55:02.510Z,95073.55
2019-06-07T13:57:31.465Z,95071.58
2019-06-07T14:00:00.140Z,95072.22
2019-06-07T14:02:29.858Z,95068.00
2019-06-07T14:04:58.402Z,95073.66
2019-06-07T14:07:28.630Z,95073.96
2019-06-07T14:09:57.547Z,95066.03
2019-06-07T14:12:26.284Z,95063.88
2019-06-07T14:14:55.145Z,95054.20
2019-06-07T14:17:23.643Z,95062.79
2019-06-07T14:19:52.199Z,95058.14
2019-06-07T14:22:20.857Z,95052.61
2019-06-07T14:24:49.487Z,95051.95
2019-06-07T14:27:18.088Z,95061.29
2019-06-07T14:29:47.468Z,95059.04
2019-06-07T14:32:16.097Z,95059.87
2019-06-07T14:34:44.662Z,95058.88
2019-06-07T14:37:13.189Z,95055.88
2019-06-07T14:39:41.734Z,95063.28
2019-06-07T14:42:10.639Z,95054.59
2019-06-07T14:44:39.297Z,95046.95
2019-06-07T14:47:07.798Z,95054.16
2019-06-07T14:49:36.399Z,95053.28
2019-06-07T14:52:05.039Z,95052.08
2019-06-07T14:54:37.013Z,95051.59
2019-06-07T14:57:05.592Z,95059.87
2019-06-07T14:59:34.880Z,95056.28
2019-06-07T15:02:03.707Z,95043.52
2019-06-07T15:04:32.885Z,95063.36
2019-06-07T15:07:01.542Z,95064.19
2019-06-07T15:09:31.024Z,95057.78
2019-06-07T15:11:59.700Z,95065.84
2019-06-07T15:14:29.328Z,95065.03
2019-06-07T15:16:57.959Z,95069.06
2019-06-07T15:19:26.796Z,95068.52
2019-06-07T15:21:55.366Z,95070.53
2019-06-07T15:24:23.992Z,95074.73
2019-06-07T15:26:52.655Z,95077.00
2019-06-07T15:29:21.277Z,95078.33
2019-06-07T15:31:49.846Z,95077.93
2019-06-07T15:34:18.490Z,95065.11
2019-06-07T15:36:47.117Z,95068.52
2019-06-07T15:39:15.748Z,95073.59
2019-06-07T15:41:44.410Z,95070.02
2019-06-07T15:44:13.043Z,95068.50
2019-06-07T15:46:41.697Z,95073.82
2019-06-07T15:49:10.315Z,95071.67
2019-06-07T15:51:38.972Z,95072.84
2019-06-07T15:54:07.993Z,95073.34
2019-06-07T15:56:37.023Z,95082.89
2019-06-07T15:59:05.637Z,95088.72
2019-06-07T16:01:35.535Z,95074.91
2019-06-07T16:04:05.056Z,95085.09
2019-06-07T16:06:34.247Z,95079.43
2019-06-07T16:09:02.923Z,95086.45
2019-06-07T16:11:32.726Z,95081.56
2019-06-07T16:14:01.514Z,95077.08
2019-06-07T16:16:30.005Z,95077.06
2019-06-07T16:18:58.897Z,95080.48
2019-06-07T16:21:27.563Z,95077.02
2019-06-07T16:23:56.189Z,95071.28
2019-06-07T16:26:24.798Z,95077.88
2019-06-07T16:28:53.434Z,95081.78
2019-06-07T16:31:21.971Z,95085.39
2019-06-07T16:33:50.529Z,95084.02
2019-06-07T16:36:19.148Z,95088.86
2019-06-07T16:38:48.643Z,95090.66
2019-06-07T16:41:17.417Z,95087.38
2019-06-07T16:43:45.911Z,95092.06
2019-06-07T16:46:14.536Z,95092.75
2019-06-07T16:48:43.198Z,95099.95
2019-06-07T16:51:11.839Z,95101.30
2019-06-07T16:53:40.480Z,95105.80
2019-06-07T16:56:09.135Z,95107.98
2019-06-07T16:58:37.917Z,95107.13
2019-06-07T17:01:06.612Z,95101.77
2019-06-07T17:03:35.251Z,95099.74
2019-06-07T17:06:03.915Z,95099.74
2019-06-07T17:08:32.546Z,95111.55
2019-06-07T17:11:01.257Z,95106.13
2019-06-07T17:13:33.594Z,95106.13
2019-06-07T17:16:00.205Z,95115.70
2019-06-07T17:18:28.878Z,95110.73
2019-06-07T17:20:57.441Z,95108.76
2019-06-07T17:23:26.026Z,95116.83
2019-06-07T17:25:54.674Z,95098.91
2019-06-07T17:28:23.306Z,95117.13
2019-06-07T17:30:51.802Z,95120.33
2019-06-07T17:33:20.397Z,95116.53
2019-06-07T17:35:50.456Z,95127.14
2019-06-07T17:38:19.126Z,95124.59
2019-06-07T17:40:49.043Z,95124.52
2019-06-07T17:43:17.820Z,95125.17
2019-06-07T17:45:47.512Z,95117.01
2019-06-07T17:48:16.168Z,95117.01
2019-06-07T17:50:45.889Z,95119.55
2019-06-07T17:53:14.503Z,95119.80
2019-06-07T17:55:44.097Z,95126.34
2019-06-07T17:58:12.736Z,95130.13
2019-06-07T18:00:53.308Z,95133.86
2019-06-07T18:03:21.892Z,95129.63
2019-06-07T18:05:51.384Z,95140.63
2019-06-07T18:08:20.071Z,95139.41
2019-06-07T18:10:50.063Z,95145.46
2019-06-07T18:13:18.726Z,95143.05
2019-06-07T18:15:52.930Z,95140.72
2019-06-07T18:18:18.664Z,95146.36
2019-06-07T18:20:47.457Z,95147.14
2019-06-07T18:23:16.162Z,95148.22
2019-06-07T18:25:44.796Z,95146.58
2019-06-07T18:28:13.549Z,95147.58
2019-06-07T18:30:42.258Z,95139.52
2019-06-07T18:33:10.808Z,95148.03
2019-06-07T18:35:39.427Z,95151.98
2019-06-07T18:38:10.777Z,95152.73
2019-06-07T18:40:38.562Z,95152.33
2019-06-07T18:43:07.120Z,95163.91
2019-06-07T18:45:35.785Z,95169.59
2019-06-07T18:48:04.725Z,95167.21
2019-06-07T18:50:33.365Z,95174.68
2019-06-07T18:53:01.911Z,95177.55
2019-06-07T18:55:30.526Z,95180.08
2019-06-07T18:57:59.091Z,95185.15
2019-06-07T19:00:28.540Z,95189.13
2019-06-07T19:02:58.152Z,95192.19
2019-06-07T19:05:27.496Z,95198.55
2019-06-07T19:07:56.732Z,95207.28
2019-06-07T19:10:25.437Z,95209.88
2019-06-07T19:12:55.268Z,95206.98
2019-06-07T19:15:24.657Z,95210.64
2019-06-07T19:17:54.070Z,95211.58
2019-06-07T19:20:24.118Z,95221.37
2019-06-07T19:22:54.143Z,95215.44
2019-06-07T19:25:22.836Z,95224.15
2019-06-07T19:27:52.742Z,95232.52
2019-06-07T19:30:21.817Z,95223.15
2019-06-07T19:32:51.435Z,95226.79
2019-06-07T19:35:20.162Z,95236.14
2019-06-07T19:37:48.828Z,95240.62
2019-06-07T19:40:18.570Z,95238.61
2019-06-07T19:42:47.125Z,95236.64
2019-06-07T19:45:29.850Z,95245.64
2019-06-07T19:47:46.381Z,95243.38
2019-06-07T19:50:16.102Z,95243.33
2019-06-07T19:52:44.626Z,95247.80
2019-06-07T19:55:14.583Z,95234.91
2019-06-07T19:57:43.193Z,95246.08
2019-06-07T20:00:14.291Z,95240.08
2019-06-07T20:02:42.523Z,95241.67
2019-06-07T20:05:14.051Z,95239.31
2019-06-07T20:07:42.720Z,95238.86
2019-06-07T20:10:12.157Z,95247.24
2019-06-07T20:12:40.790Z,95248.95
2019-06-07T20:15:27.708Z,95246.89
2019-06-07T20:17:40.947Z,95247.26
2019-06-07T20:20:10.286Z,95243.05
2019-06-07T20:22:38.953Z,95248.36
2019-06-07T20:25:09.304Z,95247.91
2019-06-07T20:27:38.001Z,95254.22
2019-06-07T20:30:08.672Z,95256.55
2019-06-07T20:32:37.243Z,95256.39
2019-06-07T20:35:08.237Z,95255.45
2019-06-07T20:37:37.117Z,95256.59
2019-06-07T20:40:22.918Z,95261.50
2019-06-07T20:45:08.214Z,95264.30
2019-06-07T20:47:36.746Z,95262.32
2019-06-07T20:50:09.046Z,95271.06
2019-06-07T20:52:37.745Z,95265.02
2019-06-07T20:55:09.738Z,95264.89
2019-06-07T20:57:38.474Z,95262.17
2019-06-07T21:00:16.703Z,95268.56
2019-06-07T21:02:39.721Z,95267.97
2019-06-07T21:05:09.922Z,95270.19
2019-06-07T21:07:38.826Z,95283.59
2019-06-07T21:10:10.856Z,95277.71
2019-06-07T21:12:39.542Z,95284.20
2019-06-07T21:15:11.757Z,95277.47
2019-06-07T21:17:39.122Z,95279.62
2019-06-07T21:20:11.864Z,95279.37
2019-06-07T21:22:38.811Z,95287.77
2019-06-07T21:25:11.519Z,95291.66
2019-06-07T21:27:40.358Z,95292.04
2019-06-07T21:30:09.821Z,95291.41
2019-06-07T21:32:38.509Z,95287.72
2019-06-07T21:35:10.002Z,95286.38
2019-06-07T21:37:38.925Z,95288.06
2019-06-07T21:40:10.333Z,95283.28
2019-06-07T21:42:39.157Z,95293.11
2019-06-07T21:45:09.624Z,95293.56
2019-06-07T21:47:38.382Z,95281.02
2019-06-07T21:50:10.591Z,95288.55
2019-06-07T21:52:39.379Z,95290.58
2019-06-07T21:55:09.210Z,95282.59
2019-06-07T21:57:38.316Z,95285.46
2019-06-07T22:00:11.656Z,95286.02
2019-06-07T22:02:40.343Z,95285.95
2019-06-07T22:05:09.612Z,95287.09
2019-06-07T22:07:38.425Z,95295.36
2019-06-07T22:10:08.034Z,95292.43
2019-06-07T22:12:36.808Z,95292.84
2019-06-07T22:15:24.594Z,95285.13
2019-06-07T22:17:38.783Z,95286.04
2019-06-07T22:20:09.055Z,95289.18
2019-06-07T22:22:37.637Z,95290.20
2019-06-07T22:25:07.516Z,95285.39
2019-06-07T22:27:36.140Z,95286.25
2019-06-07T22:30:08.276Z,95283.44
2019-06-07T22:32:37.361Z,95285.62
2019-06-07T22:35:06.918Z,95281.44
2019-06-07T22:37:35.542Z,95292.94
2019-06-07T22:40:08.527Z,95294.95
2019-06-07T22:42:37.519Z,95294.25
2019-06-07T22:45:07.955Z,95291.05
2019-06-07T22:47:36.839Z,95293.20
2019-06-07T22:50:10.683Z,95303.09
2019-06-07T22:52:39.576Z,95296.63
2019-06-07T22:55:10.176Z,95291.58
2019-06-07T22:57:58.330Z,95291.36
2019-06-07T23:00:28.794Z,95285.56
2019-06-07T23:02:57.450Z,95285.08
2019-06-07T23:05:26.137Z,95282.57
2019-06-07T23:07:54.696Z,95276.77
2019-06-07T23:10:23.346Z,95277.53
2019-06-07T23:12:51.875Z,95284.36
2019-06-07T23:15:20.967Z,95271.12
2019-06-07T23:17:49.614Z,95278.08
2019-06-07T23:20:20.016Z,95278.72
2019-06-07T23:22:48.665Z,95277.72
2019-06-07T23:25:21.884Z,95276.06
2019-06-07T23:27:47.749Z,95274.84
2019-06-07T23:30:16.998Z,95275.97
2019-06-07T23:32:45.657Z,95273.19
2019-06-07T23:35:14.829Z,95263.48
2019-06-07T23:37:43.576Z,95266.67
2019-06-07T23:40:14.897Z,95269.84
2019-06-07T23:42:43.892Z,95264.88
2019-06-07T23:45:13.806Z,95266.67
2019-06-07T23:47:42.415Z,95265.65
2019-06-07T23:50:11.573Z,95270.45
2019-06-07T23:52:40.268Z,95276.67
2019-06-07T23:55:09.018Z,95271.50
2019-06-07T23:57:37.624Z,95267.20
